Terminal Aerodrome Forecast
Issued by NWS Charleston, WV

Current Version | Previous Version | Graphics & Text | Print | Product List | Glossary On
Versions: 1 2 3 4 5 6 7 8 9 10 11 12 13 14 15 16 17 18 19 20 21 22 23 24 25
000
FTUS41 KRLX 251616 AAB
TAFHTS
TAF AMD
KHTS 251616Z 2516/2612 20004KT P6SM SCT025 BKN035
     FM251700 27004KT P6SM VCTS SCT025 BKN035CB
     FM260900 VRB03KT 5SM SHRA BR BKN020=

USA.gov is the U.S. government's official web portal to all federal, state and local government web resources and services.